sensor_id;sensor_type;location;lat;lon;timestamp;pressure;altitude;pressure_sealevel;temperature;humidity
32243;BME280;18731;42.830;24.390;2024-02-28T00:02:10;94797.09;;;5.78;77.96
32243;BME280;18731;42.830;24.390;2024-02-28T00:04:36;94798.75;;;5.74;79.71
32243;BME280;18731;42.830;24.390;2024-02-28T00:07:01;94804.19;;;5.83;80.04
32243;BME280;18731;42.830;24.390;2024-02-28T00:09:27;94803.94;;;5.66;78.73
32243;BME280;18731;42.830;24.390;2024-02-28T00:11:52;94806.66;;;5.61;78.99
32243;BME280;18731;42.830;24.390;2024-02-28T00:14:18;94809.66;;;5.54;81.91
32243;BME280;18731;42.830;24.390;2024-02-28T00:16:45;94807.03;;;5.54;81.82
32243;BME280;18731;42.830;24.390;2024-02-28T00:19:11;94811.75;;;5.57;79.32
32243;BME280;18731;42.830;24.390;2024-02-28T00:21:38;94811.88;;;5.47;80.25
32243;BME280;18731;42.830;24.390;2024-02-28T00:24:04;94823.13;;;5.58;80.82
32243;BME280;18731;42.830;24.390;2024-02-28T00:26:29;94821.69;;;5.46;80.12
32243;BME280;18731;42.830;24.390;2024-02-28T00:28:55;94804.97;;;5.32;81.87
32243;BME280;18731;42.830;24.390;2024-02-28T00:31:21;94794.16;;;5.29;82.86
32243;BME280;18731;42.830;24.390;2024-02-28T00:33:47;94777.06;;;5.21;81.41
32243;BME280;18731;42.830;24.390;2024-02-28T00:36:13;94819.97;;;5.37;82.12
32243;BME280;18731;42.830;24.390;2024-02-28T00:38:40;94817.75;;;5.44;82.22
32243;BME280;18731;42.830;24.390;2024-02-28T00:41:06;94817.69;;;5.49;81.26
32243;BME280;18731;42.830;24.390;2024-02-28T00:43:31;94833.66;;;5.44;81.30
32243;BME280;18731;42.830;24.390;2024-02-28T00:45:57;94836.56;;;5.42;81.57
32243;BME280;18731;42.830;24.390;2024-02-28T00:48:23;94817.59;;;5.54;80.99
32243;BME280;18731;42.830;24.390;2024-02-28T00:50:49;94828.19;;;5.54;80.23
32243;BME280;18731;42.830;24.390;2024-02-28T00:53:14;94825.06;;;5.52;82.89
32243;BME280;18731;42.830;24.390;2024-02-28T00:55:40;94822.31;;;5.20;81.80
32243;BME280;18731;42.830;24.390;2024-02-28T00:58:05;94823.97;;;5.34;81.25
32243;BME280;18731;42.830;24.390;2024-02-28T01:00:31;94814.69;;;5.37;82.78
32243;BME280;18731;42.830;24.390;2024-02-28T01:02:56;94821.06;;;5.36;82.09
32243;BME280;18731;42.830;24.390;2024-02-28T01:05:22;94824.06;;;5.29;83.20
32243;BME280;18731;42.830;24.390;2024-02-28T01:07:47;94828.41;;;5.39;83.06
32243;BME280;18731;42.830;24.390;2024-02-28T01:10:13;94829.00;;;5.36;84.27
32243;BME280;18731;42.830;24.390;2024-02-28T01:12:38;94833.16;;;5.42;83.94
32243;BME280;18731;42.830;24.390;2024-02-28T01:15:04;94827.50;;;5.30;83.54
32243;BME280;18731;42.830;24.390;2024-02-28T01:17:30;94836.38;;;5.39;84.13
32243;BME280;18731;42.830;24.390;2024-02-28T01:19:55;94825.28;;;5.37;82.46
32243;BME280;18731;42.830;24.390;2024-02-28T01:22:21;94829.06;;;5.31;82.53
32243;BME280;18731;42.830;24.390;2024-02-28T01:24:46;94794.97;;;5.05;84.57
32243;BME280;18731;42.830;24.390;2024-02-28T01:27:12;94830.00;;;5.40;83.06
32243;BME280;18731;42.830;24.390;2024-02-28T01:29:37;94827.50;;;5.30;81.36
32243;BME280;18731;42.830;24.390;2024-02-28T01:32:03;94838.88;;;5.06;84.39
32243;BME280;18731;42.830;24.390;2024-02-28T01:34:29;94829.53;;;5.14;85.27
32243;BME280;18731;42.830;24.390;2024-02-28T01:36:54;94834.25;;;5.17;83.46
32243;BME280;18731;42.830;24.390;2024-02-28T01:39:20;94831.78;;;5.26;83.03
32243;BME280;18731;42.830;24.390;2024-02-28T01:41:54;94831.13;;;5.34;82.22
32243;BME280;18731;42.830;24.390;2024-02-28T01:44:21;94821.13;;;5.31;80.89
32243;BME280;18731;42.830;24.390;2024-02-28T01:46:47;94839.44;;;5.46;81.40
32243;BME280;18731;42.830;24.390;2024-02-28T01:49:13;94840.94;;;5.52;81.46
32243;BME280;18731;42.830;24.390;2024-02-28T01:51:41;94833.28;;;5.51;79.50
32243;BME280;18731;42.830;24.390;2024-02-28T01:54:07;94816.91;;;5.30;79.16
32243;BME280;18731;42.830;24.390;2024-02-28T01:56:33;94840.00;;;5.43;79.78
32243;BME280;18731;42.830;24.390;2024-02-28T01:59:00;94845.09;;;5.39;79.90
32243;BME280;18731;42.830;24.390;2024-02-28T02:01:27;94848.53;;;5.40;79.77
32243;BME280;18731;42.830;24.390;2024-02-28T02:03:53;94849.09;;;5.37;79.50
32243;BME280;18731;42.830;24.390;2024-02-28T02:06:19;94842.44;;;5.39;79.24
32243;BME280;18731;42.830;24.390;2024-02-28T02:08:45;94857.75;;;5.42;78.79
32243;BME280;18731;42.830;24.390;2024-02-28T02:11:12;94849.31;;;5.40;79.23
32243;BME280;18731;42.830;24.390;2024-02-28T02:13:52;94826.16;;;5.08;80.31
32243;BME280;18731;42.830;24.390;2024-02-28T02:16:19;94854.19;;;5.09;81.11
32243;BME280;18731;42.830;24.390;2024-02-28T02:18:47;94859.34;;;5.20;82.28
32243;BME280;18731;42.830;24.390;2024-02-28T02:21:15;94857.97;;;5.27;81.36
32243;BME280;18731;42.830;24.390;2024-02-28T02:23:42;94851.47;;;5.14;80.48
32243;BME280;18731;42.830;24.390;2024-02-28T02:26:08;94818.91;;;4.95;80.69
32243;BME280;18731;42.830;24.390;2024-02-28T02:28:34;94856.16;;;5.23;81.42
32243;BME280;18731;42.830;24.390;2024-02-28T02:30:59;94860.31;;;5.29;81.34
32243;BME280;18731;42.830;24.390;2024-02-28T02:33:25;94862.41;;;5.32;79.64
32243;BME280;18731;42.830;24.390;2024-02-28T02:35:52;94865.47;;;5.20;79.80
32243;BME280;18731;42.830;24.390;2024-02-28T02:38:18;94862.06;;;5.14;80.12
32243;BME280;18731;42.830;24.390;2024-02-28T02:40:43;94864.72;;;5.14;81.04
32243;BME280;18731;42.830;24.390;2024-02-28T02:43:09;94867.06;;;5.16;81.13
32243;BME280;18731;42.830;24.390;2024-02-28T02:45:35;94867.03;;;5.21;80.60
32243;BME280;18731;42.830;24.390;2024-02-28T02:48:00;94867.81;;;5.22;79.72
32243;BME280;18731;42.830;24.390;2024-02-28T02:50:26;94845.31;;;5.00;81.12
32243;BME280;18731;42.830;24.390;2024-02-28T02:52:51;94870.50;;;5.16;80.94
32243;BME280;18731;42.830;24.390;2024-02-28T02:55:17;94874.63;;;5.28;80.45
32243;BME280;18731;42.830;24.390;2024-02-28T02:57:42;94869.91;;;5.25;79.85
32243;BME280;18731;42.830;24.390;2024-02-28T03:00:09;94870.97;;;5.24;79.84
32243;BME280;18731;42.830;24.390;2024-02-28T03:02:35;94874.78;;;5.12;79.69
32243;BME280;18731;42.830;24.390;2024-02-28T03:05:04;94871.28;;;5.17;80.51
32243;BME280;18731;42.830;24.390;2024-02-28T03:07:30;94873.13;;;5.22;80.78
32243;BME280;18731;42.830;24.390;2024-02-28T03:09:55;94879.19;;;5.22;79.26
32243;BME280;18731;42.830;24.390;2024-02-28T03:12:21;94869.44;;;5.17;79.93
32243;BME280;18731;42.830;24.390;2024-02-28T03:14:48;94881.78;;;5.27;80.41
32243;BME280;18731;42.830;24.390;2024-02-28T03:17:13;94875.13;;;5.30;80.02
32243;BME280;18731;42.830;24.390;2024-02-28T03:19:41;94889.94;;;5.31;79.87
32243;BME280;18731;42.830;24.390;2024-02-28T03:22:06;94875.19;;;5.25;79.41
32243;BME280;18731;42.830;24.390;2024-02-28T03:24:32;94893.03;;;5.38;79.46
32243;BME280;18731;42.830;24.390;2024-02-28T03:27:01;94868.63;;;5.22;78.91
32243;BME280;18731;42.830;24.390;2024-02-28T03:29:27;94898.47;;;5.46;78.31
32243;BME280;18731;42.830;24.390;2024-02-28T03:31:52;94902.53;;;5.39;78.60
32243;BME280;18731;42.830;24.390;2024-02-28T03:34:18;94899.81;;;5.44;77.87
32243;BME280;18731;42.830;24.390;2024-02-28T03:36:44;94869.50;;;5.12;79.14
32243;BME280;18731;42.830;24.390;2024-02-28T03:39:09;94893.44;;;5.26;78.93
32243;BME280;18731;42.830;24.390;2024-02-28T03:41:35;94896.69;;;5.18;79.00
32243;BME280;18731;42.830;24.390;2024-02-28T03:44:00;94903.00;;;5.22;78.56
32243;BME280;18731;42.830;24.390;2024-02-28T03:46:26;94899.59;;;5.22;78.56
32243;BME280;18731;42.830;24.390;2024-02-28T03:48:51;94888.22;;;5.21;78.54
32243;BME280;18731;42.830;24.390;2024-02-28T03:51:17;94900.38;;;5.22;78.34
32243;BME280;18731;42.830;24.390;2024-02-28T03:53:42;94895.06;;;5.22;79.22
32243;BME280;18731;42.830;24.390;2024-02-28T03:56:08;94902.25;;;5.16;78.54
32243;BME280;18731;42.830;24.390;2024-02-28T03:58:34;94903.59;;;5.14;78.49
32243;BME280;18731;42.830;24.390;2024-02-28T04:00:59;94897.75;;;5.17;78.73
32243;BME280;18731;42.830;24.390;2024-02-28T04:03:24;94895.91;;;5.17;78.78
32243;BME280;18731;42.830;24.390;2024-02-28T04:05:50;94902.25;;;5.16;79.55
32243;BME280;18731;42.830;24.390;2024-02-28T04:08:15;94901.75;;;5.14;79.38
32243;BME280;18731;42.830;24.390;2024-02-28T04:10:41;94894.81;;;5.18;78.98
32243;BME280;18731;42.830;24.390;2024-02-28T04:13:06;94896.97;;;5.16;78.90
32243;BME280;18731;42.830;24.390;2024-02-28T04:15:32;94902.81;;;5.13;79.36
32243;BME280;18731;42.830;24.390;2024-02-28T04:17:57;94890.56;;;5.23;79.03
32243;BME280;18731;42.830;24.390;2024-02-28T04:20:23;94897.31;;;5.10;78.76
32243;BME280;18731;42.830;24.390;2024-02-28T04:22:49;94899.69;;;5.11;79.36
32243;BME280;18731;42.830;24.390;2024-02-28T04:25:14;94906.59;;;5.07;78.65
32243;BME280;18731;42.830;24.390;2024-02-28T04:27:39;94897.53;;;5.13;79.39
32243;BME280;18731;42.830;24.390;2024-02-28T04:30:06;94872.72;;;4.85;79.41
32243;BME280;18731;42.830;24.390;2024-02-28T04:32:31;94902.16;;;5.03;79.30
32243;BME280;18731;42.830;24.390;2024-02-28T04:34:57;94902.94;;;5.03;79.20
32243;BME280;18731;42.830;24.390;2024-02-28T04:37:22;94901.25;;;5.12;78.84
32243;BME280;18731;42.830;24.390;2024-02-28T04:39:48;94901.53;;;5.11;78.87
32243;BME280;18731;42.830;24.390;2024-02-28T04:42:15;94896.06;;;5.02;79.18
32243;BME280;18731;42.830;24.390;2024-02-28T04:44:41;94898.88;;;5.11;79.48
32243;BME280;18731;42.830;24.390;2024-02-28T04:47:07;94898.78;;;4.97;79.05
32243;BME280;18731;42.830;24.390;2024-02-28T04:49:32;94891.91;;;4.96;79.26
32243;BME280;18731;42.830;24.390;2024-02-28T04:51:58;94899.22;;;5.04;79.04
32243;BME280;18731;42.830;24.390;2024-02-28T04:54:24;94890.16;;;5.10;78.72
32243;BME280;18731;42.830;24.390;2024-02-28T04:56:49;94887.56;;;5.05;78.18
32243;BME280;18731;42.830;24.390;2024-02-28T04:59:16;94900.69;;;5.15;78.41
32243;BME280;18731;42.830;24.390;2024-02-28T05:01:41;94906.16;;;5.00;78.76
32243;BME280;18731;42.830;24.390;2024-02-28T05:04:08;94907.00;;;4.96;78.81
32243;BME280;18731;42.830;24.390;2024-02-28T05:06:35;94898.22;;;5.00;78.80
32243;BME280;18731;42.830;24.390;2024-02-28T05:09:01;94899.69;;;4.88;79.13
32243;BME280;18731;42.830;24.390;2024-02-28T05:11:26;94903.72;;;4.80;80.27
32243;BME280;18731;42.830;24.390;2024-02-28T05:13:52;94896.06;;;4.78;80.82
32243;BME280;18731;42.830;24.390;2024-02-28T05:16:17;94904.25;;;4.82;80.66
32243;BME280;18731;42.830;24.390;2024-02-28T05:18:46;94899.34;;;4.94;80.29
32243;BME280;18731;42.830;24.390;2024-02-28T05:21:12;94898.94;;;4.82;80.91
32243;BME280;18731;42.830;24.390;2024-02-28T05:23:37;94874.59;;;4.61;81.45
32243;BME280;18731;42.830;24.390;2024-02-28T05:26:03;94905.88;;;4.78;81.44
32243;BME280;18731;42.830;24.390;2024-02-28T05:28:30;94909.75;;;4.85;81.47
32243;BME280;18731;42.830;24.390;2024-02-28T05:30:56;94911.00;;;4.93;80.76
32243;BME280;18731;42.830;24.390;2024-02-28T05:33:22;94904.28;;;5.01;80.92
32243;BME280;18731;42.830;24.390;2024-02-28T05:35:47;94917.63;;;5.14;80.65
32243;BME280;18731;42.830;24.390;2024-02-28T05:38:13;94881.38;;;4.91;80.70
32243;BME280;18731;42.830;24.390;2024-02-28T05:40:41;94921.75;;;5.26;80.62
32243;BME280;18731;42.830;24.390;2024-02-28T05:43:06;94922.84;;;5.20;80.27
32243;BME280;18731;42.830;24.390;2024-02-28T05:45:32;94920.41;;;5.28;80.29
32243;BME280;18731;42.830;24.390;2024-02-28T05:47:57;94923.78;;;5.34;80.41
32243;BME280;18731;42.830;24.390;2024-02-28T05:50:23;94933.13;;;5.26;80.64
32243;BME280;18731;42.830;24.390;2024-02-28T05:52:50;94918.03;;;5.27;80.98
32243;BME280;18731;42.830;24.390;2024-02-28T05:55:15;94920.63;;;5.32;80.67
32243;BME280;18731;42.830;24.390;2024-02-28T05:57:41;94928.94;;;5.44;80.70
32243;BME280;18731;42.830;24.390;2024-02-28T06:00:07;94932.19;;;5.60;81.20
32243;BME280;18731;42.830;24.390;2024-02-28T06:02:36;94937.00;;;5.76;80.88
32243;BME280;18731;42.830;24.390;2024-02-28T06:05:03;94935.78;;;6.06;80.14
32243;BME280;18731;42.830;24.390;2024-02-28T06:07:28;94940.41;;;6.33;79.38
32243;BME280;18731;42.830;24.390;2024-02-28T06:09:54;94936.84;;;6.57;78.49
32243;BME280;18731;42.830;24.390;2024-02-28T06:12:19;94933.25;;;6.80;78.15
32243;BME280;18731;42.830;24.390;2024-02-28T06:14:45;94943.50;;;7.00;78.10
32243;BME280;18731;42.830;24.390;2024-02-28T06:17:10;94941.53;;;7.33;75.79
32243;BME280;18731;42.830;24.390;2024-02-28T06:19:36;94945.25;;;7.60;75.66
32243;BME280;18731;42.830;24.390;2024-02-28T06:22:01;94947.59;;;7.75;75.24
32243;BME280;18731;42.830;24.390;2024-02-28T06:24:27;94943.25;;;7.93;74.56
32243;BME280;18731;42.830;24.390;2024-02-28T06:26:52;94954.03;;;8.10;73.35
32243;BME280;18731;42.830;24.390;2024-02-28T06:29:18;94946.78;;;8.24;73.19
32243;BME280;18731;42.830;24.390;2024-02-28T06:31:43;94942.72;;;8.41;72.66
32243;BME280;18731;42.830;24.390;2024-02-28T06:34:09;94941.50;;;8.47;72.71
32243;BME280;18731;42.830;24.390;2024-02-28T06:36:35;94936.78;;;8.44;72.27
32243;BME280;18731;42.830;24.390;2024-02-28T06:39:00;94958.38;;;8.64;71.32
32243;BME280;18731;42.830;24.390;2024-02-28T06:41:26;94938.84;;;8.69;71.24
32243;BME280;18731;42.830;24.390;2024-02-28T06:43:51;94933.72;;;8.81;70.95
32243;BME280;18731;42.830;24.390;2024-02-28T06:46:17;94938.56;;;8.79;71.59
32243;BME280;18731;42.830;24.390;2024-02-28T06:48:43;94950.88;;;8.97;71.17
32243;BME280;18731;42.830;24.390;2024-02-28T06:51:08;94951.56;;;9.12;71.03
32243;BME280;18731;42.830;24.390;2024-02-28T06:53:34;94952.88;;;9.23;70.59
32243;BME280;18731;42.830;24.390;2024-02-28T06:56:01;94951.72;;;9.46;70.29
32243;BME280;18731;42.830;24.390;2024-02-28T06:58:27;94954.75;;;9.71;68.58
32243;BME280;18731;42.830;24.390;2024-02-28T07:00:52;94951.16;;;9.84;68.34
32243;BME280;18731;42.830;24.390;2024-02-28T07:03:18;94951.19;;;10.01;67.50
32243;BME280;18731;42.830;24.390;2024-02-28T07:05:43;94961.53;;;9.94;66.18
32243;BME280;18731;42.830;24.390;2024-02-28T07:08:09;94966.53;;;9.87;66.90
32243;BME280;18731;42.830;24.390;2024-02-28T07:10:36;94946.78;;;9.88;66.15
32243;BME280;18731;42.830;24.390;2024-02-28T07:13:02;94958.56;;;10.13;65.91
32243;BME280;18731;42.830;24.390;2024-02-28T07:15:27;94955.94;;;10.21;64.46
32243;BME280;18731;42.830;24.390;2024-02-28T07:17:53;94959.72;;;10.20;65.02
32243;BME280;18731;42.830;24.390;2024-02-28T07:20:18;94960.06;;;10.45;65.22
32243;BME280;18731;42.830;24.390;2024-02-28T07:22:44;94955.63;;;10.75;64.38
32243;BME280;18731;42.830;24.390;2024-02-28T07:25:09;94953.69;;;10.92;63.73
32243;BME280;18731;42.830;24.390;2024-02-28T07:27:35;94944.88;;;11.01;63.43
32243;BME280;18731;42.830;24.390;2024-02-28T07:30:01;94942.03;;;11.06;63.34
32243;BME280;18731;42.830;24.390;2024-02-28T07:32:28;94936.47;;;11.19;62.23
32243;BME280;18731;42.830;24.390;2024-02-28T07:34:54;94940.69;;;11.29;61.20
32243;BME280;18731;42.830;24.390;2024-02-28T07:37:20;94939.69;;;11.42;61.09
32243;BME280;18731;42.830;24.390;2024-02-28T07:39:46;94942.47;;;11.54;60.51
32243;BME280;18731;42.830;24.390;2024-02-28T07:42:12;94943.00;;;11.69;60.38
32243;BME280;18731;42.830;24.390;2024-02-28T07:44:38;94932.88;;;11.83;59.64
32243;BME280;18731;42.830;24.390;2024-02-28T07:47:05;94906.19;;;11.74;60.57
32243;BME280;18731;42.830;24.390;2024-02-28T07:49:31;94929.63;;;11.98;61.30
32243;BME280;18731;42.830;24.390;2024-02-28T07:51:57;94925.72;;;12.16;60.10
32243;BME280;18731;42.830;24.390;2024-02-28T07:54:22;94923.13;;;12.29;59.33
32243;BME280;18731;42.830;24.390;2024-02-28T07:56:48;94925.84;;;12.41;58.62
32243;BME280;18731;42.830;24.390;2024-02-28T07:59:13;94927.47;;;12.54;59.32
32243;BME280;18731;42.830;24.390;2024-02-28T08:01:39;94914.97;;;12.58;61.04
32243;BME280;18731;42.830;24.390;2024-02-28T08:04:05;94911.94;;;12.80;59.50
32243;BME280;18731;42.830;24.390;2024-02-28T08:06:30;94901.44;;;12.75;59.12
32243;BME280;18731;42.830;24.390;2024-02-28T08:08:58;94911.75;;;12.98;57.75
32243;BME280;18731;42.830;24.390;2024-02-28T08:11:24;94911.09;;;13.01;57.90
32243;BME280;18731;42.830;24.390;2024-02-28T08:13:50;94905.88;;;13.04;57.99
32243;BME280;18731;42.830;24.390;2024-02-28T08:16:16;94904.91;;;13.21;58.47
32243;BME280;18731;42.830;24.390;2024-02-28T08:18:41;94907.38;;;13.50;56.47
32243;BME280;18731;42.830;24.390;2024-02-28T08:21:08;94911.28;;;13.77;55.86
32243;BME280;18731;42.830;24.390;2024-02-28T08:23:34;94902.72;;;14.12;55.04
32243;BME280;18731;42.830;24.390;2024-02-28T08:25:59;94907.75;;;14.41;53.71
32243;BME280;18731;42.830;24.390;2024-02-28T08:28:25;94897.22;;;14.76;52.97
32243;BME280;18731;42.830;24.390;2024-02-28T08:30:50;94900.31;;;15.06;52.36
32243;BME280;18731;42.830;24.390;2024-02-28T08:33:16;94895.00;;;15.41;52.02
32243;BME280;18731;42.830;24.390;2024-02-28T08:35:41;94903.84;;;15.89;51.72
32243;BME280;18731;42.830;24.390;2024-02-28T08:38:08;94892.44;;;16.31;50.73
32243;BME280;18731;42.830;24.390;2024-02-28T08:40:33;94872.66;;;16.43;49.72
32243;BME280;18731;42.830;24.390;2024-02-28T08:42:59;94891.66;;;17.11;48.88
32243;BME280;18731;42.830;24.390;2024-02-28T08:45:24;94890.69;;;17.46;47.53
32243;BME280;18731;42.830;24.390;2024-02-28T08:47:50;94892.34;;;18.03;46.90
32243;BME280;18731;42.830;24.390;2024-02-28T08:50:16;94890.63;;;18.48;43.40
32243;BME280;18731;42.830;24.390;2024-02-28T08:52:41;94890.03;;;18.95;42.51
32243;BME280;18731;42.830;24.390;2024-02-28T08:55:07;94889.34;;;19.46;41.50
32243;BME280;18731;42.830;24.390;2024-02-28T08:57:32;94862.59;;;19.37;36.66
32243;BME280;18731;42.830;24.390;2024-02-28T08:59:59;94883.75;;;19.72;36.97
32243;BME280;18731;42.830;24.390;2024-02-28T09:02:24;94879.03;;;20.20;36.31
32243;BME280;18731;42.830;24.390;2024-02-28T09:04:50;94883.03;;;20.41;36.37
32243;BME280;18731;42.830;24.390;2024-02-28T09:07:18;94886.59;;;20.63;34.47
32243;BME280;18731;42.830;24.390;2024-02-28T09:09:47;94876.63;;;20.92;34.80
32243;BME280;18731;42.830;24.390;2024-02-28T09:12:13;94870.13;;;21.35;33.89
32243;BME280;18731;42.830;24.390;2024-02-28T09:14:38;94874.00;;;21.73;35.16
32243;BME280;18731;42.830;24.390;2024-02-28T09:17:04;94872.44;;;21.90;32.44
32243;BME280;18731;42.830;24.390;2024-02-28T09:19:31;94872.84;;;21.78;32.02
32243;BME280;18731;42.830;24.390;2024-02-28T09:21:57;94867.81;;;21.48;33.25
32243;BME280;18731;42.830;24.390;2024-02-28T09:24:26;94877.13;;;21.79;31.77
32243;BME280;18731;42.830;24.390;2024-02-28T09:26:51;94870.81;;;22.32;31.82
32243;BME280;18731;42.830;24.390;2024-02-28T09:29:17;94869.88;;;22.74;30.85
32243;BME280;18731;42.830;24.390;2024-02-28T09:31:42;94875.91;;;23.14;30.56
32243;BME280;18731;42.830;24.390;2024-02-28T09:34:08;94865.97;;;23.48;30.83
32243;BME280;18731;42.830;24.390;2024-02-28T09:36:44;94853.09;;;23.56;29.07
32243;BME280;18731;42.830;24.390;2024-02-28T09:41:41;94851.53;;;23.51;29.34
32243;BME280;18731;42.830;24.390;2024-02-28T09:44:07;94855.50;;;23.39;30.10
32243;BME280;18731;42.830;24.390;2024-02-28T09:46:34;94831.16;;;23.15;29.01
32243;BME280;18731;42.830;24.390;2024-02-28T09:49:03;94846.16;;;23.37;29.25
32243;BME280;18731;42.830;24.390;2024-02-28T09:51:33;94851.38;;;23.72;29.16
32243;BME280;18731;42.830;24.390;2024-02-28T09:54:04;94850.94;;;23.78;28.58
32243;BME280;18731;42.830;24.390;2024-02-28T09:56:31;94845.00;;;23.90;28.16
32243;BME280;18731;42.830;24.390;2024-02-28T09:58:57;94848.06;;;24.33;29.55
32243;BME280;18731;42.830;24.390;2024-02-28T10:01:25;94843.94;;;24.82;29.27
32243;BME280;18731;42.830;24.390;2024-02-28T10:03:52;94838.47;;;25.13;28.14
32243;BME280;18731;42.830;24.390;2024-02-28T10:06:19;94833.59;;;24.70;27.98
32243;BME280;18731;42.830;24.390;2024-02-28T10:08:45;94839.72;;;24.47;28.04
32243;BME280;18731;42.830;24.390;2024-02-28T10:11:23;94841.41;;;24.38;28.95
32243;BME280;18731;42.830;24.390;2024-02-28T10:13:49;94825.44;;;23.57;29.49
32243;BME280;18731;42.830;24.390;2024-02-28T10:16:16;94830.09;;;23.01;29.77
32243;BME280;18731;42.830;24.390;2024-02-28T10:18:45;94820.66;;;22.43;30.95
32243;BME280;18731;42.830;24.390;2024-02-28T10:21:14;94821.28;;;22.72;31.24
32243;BME280;18731;42.830;24.390;2024-02-28T10:23:43;94823.94;;;22.90;30.86
32243;BME280;18731;42.830;24.390;2024-02-28T10:26:10;94814.59;;;22.91;29.36
32243;BME280;18731;42.830;24.390;2024-02-28T10:28:39;94822.34;;;22.96;29.53
32243;BME280;18731;42.830;24.390;2024-02-28T10:31:06;94815.72;;;22.17;30.80
32243;BME280;18731;42.830;24.390;2024-02-28T10:33:32;94823.56;;;21.72;31.17
32243;BME280;18731;42.830;24.390;2024-02-28T10:35:59;94808.84;;;21.52;31.70
32243;BME280;18731;42.830;24.390;2024-02-28T10:38:26;94783.25;;;21.25;32.98
32243;BME280;18731;42.830;24.390;2024-02-28T10:40:53;94807.69;;;21.39;32.76
32243;BME280;18731;42.830;24.390;2024-02-28T10:43:19;94801.84;;;21.05;33.59
32243;BME280;18731;42.830;24.390;2024-02-28T10:45:45;94805.69;;;20.90;34.01
32243;BME280;18731;42.830;24.390;2024-02-28T10:48:14;94801.72;;;20.51;34.30
32243;BME280;18731;42.830;24.390;2024-02-28T10:50:39;94776.84;;;20.28;35.02
32243;BME280;18731;42.830;24.390;2024-02-28T10:53:13;94801.19;;;20.14;35.12
32243;BME280;18731;42.830;24.390;2024-02-28T10:55:42;94795.22;;;19.83;35.23
32243;BME280;18731;42.830;24.390;2024-02-28T10:58:11;94795.75;;;19.45;36.24
32243;BME280;18731;42.830;24.390;2024-02-28T11:00:38;94784.72;;;19.16;36.25
32243;BME280;18731;42.830;24.390;2024-02-28T11:03:05;94786.25;;;19.17;36.78
32243;BME280;18731;42.830;24.390;2024-02-28T11:05:42;94772.69;;;19.65;35.98
32243;BME280;18731;42.830;24.390;2024-02-28T11:08:10;94782.59;;;20.16;35.55
32243;BME280;18731;42.830;24.390;2024-02-28T11:10:43;94782.00;;;20.69;34.29
32243;BME280;18731;42.830;24.390;2024-02-28T11:13:10;94774.69;;;21.12;34.34
32243;BME280;18731;42.830;24.390;2024-02-28T11:15:36;94780.91;;;21.48;32.36
32243;BME280;18731;42.830;24.390;2024-02-28T11:18:09;94759.84;;;21.95;33.12
32243;BME280;18731;42.830;24.390;2024-02-28T11:20:35;94765.59;;;22.22;33.23
32243;BME280;18731;42.830;24.390;2024-02-28T11:23:00;94772.84;;;22.50;32.22
32243;BME280;18731;42.830;24.390;2024-02-28T11:25:26;94765.34;;;22.68;30.54
32243;BME280;18731;42.830;24.390;2024-02-28T11:27:52;94750.13;;;22.81;31.56
32243;BME280;18731;42.830;24.390;2024-02-28T11:30:17;94767.69;;;23.21;31.13
32243;BME280;18731;42.830;24.390;2024-02-28T11:32:43;94763.56;;;23.54;30.10
32243;BME280;18731;42.830;24.390;2024-02-28T11:35:10;94765.50;;;23.05;30.12
32243;BME280;18731;42.830;24.390;2024-02-28T11:37:38;94758.94;;;22.99;31.62
32243;BME280;18731;42.830;24.390;2024-02-28T11:40:07;94769.38;;;23.08;30.80
32243;BME280;18731;42.830;24.390;2024-02-28T11:42:35;94763.78;;;23.26;30.44
32243;BME280;18731;42.830;24.390;2024-02-28T11:45:00;94763.91;;;23.12;31.10
32243;BME280;18731;42.830;24.390;2024-02-28T11:47:34;94766.69;;;23.01;31.18
32243;BME280;18731;42.830;24.390;2024-02-28T11:50:02;94775.88;;;23.21;30.37
32243;BME280;18731;42.830;24.390;2024-02-28T11:52:30;94771.72;;;23.06;30.48
32243;BME280;18731;42.830;24.390;2024-02-28T11:54:55;94770.09;;;23.16;29.89
32243;BME280;18731;42.830;24.390;2024-02-28T11:57:21;94760.84;;;23.54;30.77
32243;BME280;18731;42.830;24.390;2024-02-28T11:59:47;94774.78;;;23.63;30.26
32243;BME280;18731;42.830;24.390;2024-02-28T12:02:14;94777.88;;;23.14;30.13
32243;BME280;18731;42.830;24.390;2024-02-28T12:04:42;94766.34;;;22.95;30.27
32243;BME280;18731;42.830;24.390;2024-02-28T12:07:11;94767.97;;;22.86;30.73
32243;BME280;18731;42.830;24.390;2024-02-28T12:09:37;94737.94;;;22.37;31.85
32243;BME280;18731;42.830;24.390;2024-02-28T12:12:04;94770.59;;;22.34;31.55
32243;BME280;18731;42.830;24.390;2024-02-28T12:14:32;94771.34;;;22.34;32.24
32243;BME280;18731;42.830;24.390;2024-02-28T12:17:02;94766.81;;;21.96;32.35
32243;BME280;18731;42.830;24.390;2024-02-28T12:19:28;94745.13;;;21.85;31.84
32243;BME280;18731;42.830;24.390;2024-02-28T12:21:54;94766.88;;;21.78;31.73
32243;BME280;18731;42.830;24.390;2024-02-28T12:24:20;94753.66;;;21.87;32.02
32243;BME280;18731;42.830;24.390;2024-02-28T12:26:46;94757.53;;;21.90;31.85
32243;BME280;18731;42.830;24.390;2024-02-28T12:29:12;94751.63;;;22.16;33.42
32243;BME280;18731;42.830;24.390;2024-02-28T12:31:38;94751.25;;;22.14;32.58
32243;BME280;18731;42.830;24.390;2024-02-28T12:34:03;94756.75;;;21.93;32.16
32243;BME280;18731;42.830;24.390;2024-02-28T12:36:29;94746.72;;;21.75;31.79
32243;BME280;18731;42.830;24.390;2024-02-28T12:38:56;94747.59;;;21.26;32.57
32243;BME280;18731;42.830;24.390;2024-02-28T12:41:22;94721.22;;;20.80;33.51
32243;BME280;18731;42.830;24.390;2024-02-28T12:43:48;94743.63;;;20.67;35.27
32243;BME280;18731;42.830;24.390;2024-02-28T12:46:14;94746.72;;;20.54;34.02
32243;BME280;18731;42.830;24.390;2024-02-28T12:48:40;94751.38;;;20.58;35.21
32243;BME280;18731;42.830;24.390;2024-02-28T12:51:08;94741.69;;;20.64;35.50
32243;BME280;18731;42.830;24.390;2024-02-28T12:53:36;94743.69;;;21.09;34.45